Time;durP1;ratioP1;P1;durP2;ratioP2;P2;SDS_P1;SDS_P2;PMS_P1;PMS_P2;Temp;Humidity;BMP_temperature;BMP_pressure;BME280_temperature;BME280_humidity;BME280_pressure;Samples;Min_cycle;Max_cycle;Signal;HPM_P1;HPM_P2
2022/06/07 00:00:16;;;;;;;3.25;1.85;;;20.40;99.90;;;;;;1892319;74;21224;-85
2022/06/07 00:03:08;;;;;;;2.10;1.80;;;20.40;99.90;;;;;;1887712;74;21553;-84
2022/06/07 00:06:01;;;;;;;1.87;1.70;;;20.40;99.90;;;;;;1895949;75;21058;-84
2022/06/07 00:08:52;;;;;;;3.77;1.80;;;20.30;99.90;;;;;;1898361;75;21071;-84
2022/06/07 00:11:44;;;;;;;2.67;1.57;;;20.30;99.90;;;;;;1900757;74;21585;-84
2022/06/07 00:14:35;;;;;;;2.70;1.90;;;20.10;99.90;;;;;;1898611;75;21054;-84
2022/06/07 00:17:27;;;;;;;1.87;1.72;;;20.00;99.90;;;;;;1891706;75;21042;-84
2022/06/07 00:20:19;;;;;;;2.02;1.82;;;20.00;99.90;;;;;;1909918;75;21176;-84
2022/06/07 00:23:13;;;;;;;4.85;1.90;;;19.80;99.90;;;;;;1903498;75;21186;-84
2022/06/07 00:26:05;;;;;;;3.75;1.92;;;19.80;99.90;;;;;;1894845;75;21134;-84
2022/06/07 00:28:57;;;;;;;2.75;1.65;;;19.80;99.90;;;;;;1890795;75;21083;-84
2022/06/07 00:34:28;;;;;;;3.80;2.08;;;19.80;99.90;;;;;;1939890;72;22146;-83
2022/06/07 00:37:38;;;;;;;1.50;1.37;;;19.80;99.90;;;;;;1906949;75;21101;-83
2022/06/07 00:40:48;;;;;;;1.70;1.47;;;19.80;99.90;;;;;;1897466;75;21096;-83
2022/06/07 00:43:40;;;;;;;2.33;1.55;;;19.80;99.90;;;;;;1890824;75;21196;-83
2022/06/07 00:46:51;;;;;;;2.85;1.82;;;19.90;99.90;;;;;;1893750;75;21136;-84
2022/06/07 00:49:46;;;;;;;2.85;1.80;;;19.90;99.90;;;;;;1884936;75;21090;-84
2022/06/07 00:52:38;;;;;;;2.08;1.87;;;19.90;99.90;;;;;;1911262;75;21104;-84
2022/06/07 00:55:30;;;;;;;2.02;1.85;;;19.90;99.90;;;;;;1910691;75;21690;-84
2022/06/07 00:58:29;;;;;;;2.10;1.87;;;20.00;99.90;;;;;;1912656;75;21064;-84
2022/06/07 01:04:02;;;;;;;3.27;1.90;;;20.10;99.90;;;;;;1920464;72;22790;-83
2022/06/07 01:10:45;;;;;;;3.55;1.90;;;20.10;99.90;;;;;;1884775;75;21105;-84
2022/06/07 01:13:41;;;;;;;4.95;2.00;;;20.10;99.90;;;;;;1884205;75;21125;-83
2022/06/07 01:16:53;;;;;;;3.05;1.85;;;20.10;99.90;;;;;;1894206;73;21175;-84
2022/06/07 01:19:45;;;;;;;2.80;1.90;;;20.00;99.90;;;;;;1891731;75;21168;-84
2022/06/07 01:22:37;;;;;;;2.90;1.80;;;19.90;99.90;;;;;;1884709;75;21163;-84
2022/06/07 01:25:30;;;;;;;2.85;1.92;;;19.90;99.90;;;;;;1891352;75;21063;-84
2022/06/07 01:28:22;;;;;;;3.92;1.80;;;19.80;99.90;;;;;;1910190;75;21147;-84
2022/06/07 01:33:53;;;;;;;1.70;1.60;;;19.90;99.90;;;;;;1939720;72;22301;-83
2022/06/07 01:43:13;;;;;;;;;;;20.20;99.90;;;;;;1935051;73;21126;-84
2022/06/07 01:46:06;;;;;;;2.58;1.57;;;20.10;99.90;;;;;;1917683;75;20177;-83
2022/06/07 01:48:59;;;;;;;3.05;1.57;;;20.00;99.90;;;;;;1906562;75;21166;-83
2022/06/07 01:51:50;;;;;;;1.70;1.60;;;20.00;99.90;;;;;;1917580;73;21161;-84
2022/06/07 01:54:45;;;;;;;2.60;1.27;;;19.90;99.90;;;;;;1917679;75;21163;-83
2022/06/07 01:57:37;;;;;;;1.87;1.65;;;19.90;99.90;;;;;;1931391;73;21552;-83
2022/06/07 02:00:30;;;;;;;2.92;2.15;;;20.00;99.90;;;;;;1917789;75;21096;-83
2022/06/07 02:03:22;;;;;;;6.00;2.52;;;19.90;99.90;;;;;;1920589;73;21154;-84
2022/06/07 02:06:15;;;;;;;2.02;1.82;;;19.80;99.90;;;;;;1931559;73;21051;-84
2022/06/07 02:09:09;;;;;;;3.10;2.08;;;19.70;99.90;;;;;;1938107;73;21085;-84
2022/06/07 02:14:39;;;;;;;4.12;2.08;;;19.60;99.90;;;;;;1933986;72;22158;-83
2022/06/07 02:17:49;;;;;;;1.82;1.50;;;19.60;99.90;;;;;;1917636;75;21109;-83
2022/06/07 02:21:01;;;;;;;2.98;1.62;;;19.70;99.90;;;;;;1917626;75;21153;-83
2022/06/07 02:23:53;;;;;;;2.27;1.55;;;19.50;99.90;;;;;;1922335;73;21035;-84
2022/06/07 02:27:06;;;;;;;2.08;1.77;;;19.30;99.90;;;;;;1917748;73;21670;-84
2022/06/07 02:29:58;;;;;;;3.35;2.00;;;19.20;99.90;;;;;;1918519;73;21121;-84
2022/06/07 02:32:50;;;;;;;2.62;1.72;;;19.20;99.90;;;;;;1924338;73;21179;-83
2022/06/07 02:35:42;;;;;;;1.98;1.55;;;19.20;99.90;;;;;;1917563;73;21098;-84
2022/06/07 02:38:34;;;;;;;2.17;1.65;;;19.20;99.90;;;;;;1939198;73;21072;-83
2022/06/07 02:44:05;;;;;;;2.22;1.40;;;19.20;99.90;;;;;;1929569;72;22224;-84
2022/06/07 02:47:17;;;;;;;1.45;1.35;;;19.30;99.90;;;;;;1894655;75;21559;-83
2022/06/07 02:50:29;;;;;;;3.35;1.30;;;19.30;99.90;;;;;;1891309;75;21447;-84
2022/06/07 02:53:20;;;;;;;1.90;1.30;;;19.30;99.90;;;;;;1894850;75;21051;-85
2022/06/07 02:59:09;;;;;;;5.62;1.70;;;19.30;99.90;;;;;;1949813;72;22317;-84
2022/06/07 03:02:19;;;;;;;4.17;1.55;;;19.30;99.90;;;;;;1901034;74;21078;-84
2022/06/07 03:05:30;;;;;;;3.33;1.67;;;19.20;99.90;;;;;;1922680;74;21183;-84
2022/06/07 03:08:24;;;;;;;3.42;1.80;;;19.30;99.90;;;;;;1917381;74;21129;-83
2022/06/07 03:11:35;;;;;;;2.98;1.90;;;19.30;99.90;;;;;;1898961;74;21160;-84
2022/06/07 03:14:29;;;;;;;2.98;1.50;;;19.40;99.90;;;;;;1908402;75;21088;-83
2022/06/07 03:17:24;;;;;;;3.37;1.40;;;19.50;99.90;;;;;;1888661;75;21071;-83
2022/06/07 03:20:16;;;;;;;2.05;1.42;;;19.50;99.90;;;;;;1903163;75;21090;-83
2022/06/07 03:23:08;;;;;;;3.25;1.50;;;19.50;99.90;;;;;;1904959;75;21062;-83
2022/06/07 03:26:05;;;;;;;3.12;1.60;;;19.60;99.90;;;;;;1908421;75;21054;-84
2022/06/07 03:31:40;;;;;;;2.47;1.40;;;19.80;99.90;;;;;;1925121;72;22235;-83
2022/06/07 03:34:51;;;;;;;4.92;1.60;;;19.80;99.90;;;;;;1931171;74;21166;-85
2022/06/07 03:38:04;;;;;;;3.12;1.80;;;19.80;99.90;;;;;;1911441;74;21106;-85
2022/06/07 03:40:57;;;;;;;2.15;1.65;;;19.90;99.90;;;;;;1938038;74;21047;-85
2022/06/07 03:44:12;;;;;;;3.80;1.80;;;19.80;99.90;;;;;;1917594;74;21215;-84
2022/06/07 03:47:06;;;;;;;1.50;1.40;;;19.70;99.90;;;;;;1934245;74;21150;-84
2022/06/07 03:49:57;;;;;;;1.87;1.60;;;19.60;99.90;;;;;;1918470;74;21153;-84
2022/06/07 03:55:29;;;;;;;1.75;1.50;;;19.50;99.90;;;;;;1934060;72;22353;-84
2022/06/07 03:58:44;;;;;;;2.00;1.42;;;19.60;99.90;;;;;;1883381;75;21351;-84
2022/06/07 04:01:53;;;;;;;3.55;1.57;;;19.70;99.90;;;;;;1901596;75;21132;-84
2022/06/07 04:04:45;;;;;;;1.87;1.50;;;19.70;99.90;;;;;;1873131;75;21106;-84
2022/06/07 04:10:34;;;;;;;3.72;1.57;;;19.80;99.90;;;;;;1945958;72;22288;-83
2022/06/07 04:13:46;;;;;;;1.92;1.50;;;19.80;99.90;;;;;;1916489;74;21132;-84
2022/06/07 04:16:57;;;;;;;2.30;1.37;;;19.80;99.90;;;;;;1932737;73;21114;-83
2022/06/07 04:19:48;;;;;;;3.62;1.70;;;19.70;99.90;;;;;;1920464;73;21120;-84
2022/06/07 04:23:00;;;;;;;1.70;1.57;;;19.70;99.90;;;;;;1941794;73;21184;-83
2022/06/07 04:25:54;;;;;;;2.52;1.60;;;19.40;99.90;;;;;;1924039;73;21116;-82
2022/06/07 04:28:48;;;;;;;1.92;1.60;;;19.20;99.90;;;;;;1930552;73;21579;-84
2022/06/07 04:31:39;;;;;;;2.60;1.70;;;19.10;99.90;;;;;;1947742;73;21047;-85
2022/06/07 04:34:34;;;;;;;2.05;1.50;;;19.00;99.90;;;;;;1929057;73;21092;-82
2022/06/07 04:37:25;;;;;;;4.30;1.62;;;19.00;99.90;;;;;;1917123;73;21112;-82
2022/06/07 04:40:19;;;;;;;3.67;1.62;;;19.00;99.90;;;;;;1917285;75;21470;-82
2022/06/07 04:43:11;;;;;;;2.58;1.55;;;19.00;99.90;;;;;;1922817;73;21046;-82
2022/06/07 04:46:07;;;;;;;1.67;1.40;;;19.00;99.90;;;;;;1919402;73;21093;-82
2022/06/07 04:48:59;;;;;;;4.00;1.80;;;19.00;99.90;;;;;;1920213;73;21172;-82
2022/06/07 04:54:31;;;;;;;4.30;2.15;;;18.90;99.90;;;;;;1948519;72;22228;-81
2022/06/07 04:57:44;;;;;;;2.35;1.60;;;19.00;99.90;;;;;;1911266;75;21651;-82
2022/06/07 05:00:55;;;;;;;3.02;1.65;;;18.90;99.90;;;;;;1910852;75;21184;-82
2022/06/07 05:03:47;;;;;;;2.83;1.65;;;19.00;99.90;;;;;;1877101;76;21144;-82
2022/06/07 05:06:57;;;;;;;2.60;1.72;;;19.10;99.90;;;;;;1906517;75;21071;-82
2022/06/07 05:09:53;;;;;;;2.20;1.70;;;19.20;99.90;;;;;;1901918;75;21171;-82
2022/06/07 05:12:50;;;;;;;3.10;1.60;;;19.20;99.90;;;;;;1897705;75;21104;-82
2022/06/07 05:15:43;;;;;;;3.33;1.70;;;19.10;99.90;;;;;;1909561;75;21116;-82
2022/06/07 05:18:36;;;;;;;3.08;1.60;;;19.10;99.90;;;;;;1910116;75;21088;-82
2022/06/07 05:24:08;;;;;;;5.45;1.92;;;19.20;99.90;;;;;;1931413;72;22200;-81
2022/06/07 05:29:59;;;;;;;4.17;2.00;;;19.20;99.90;;;;;;1926229;72;22241;-82
2022/06/07 05:36:10;;;;;;;4.00;2.00;;;19.10;99.90;;;;;;1949968;72;22228;-81
2022/06/07 05:39:23;;;;;;;3.40;1.60;;;19.10;99.90;;;;;;1902678;75;21599;-83
2022/06/07 05:42:35;;;;;;;2.92;1.75;;;19.10;99.90;;;;;;1887917;75;21084;-83
2022/06/07 05:48:11;;;;;;;2.77;1.80;;;19.10;99.90;;;;;;1939587;72;22117;-81
2022/06/07 05:51:25;;;;;;;5.72;1.90;;;19.10;99.90;;;;;;1887293;75;21105;-81
2022/06/07 05:54:38;;;;;;;3.25;1.90;;;19.10;99.90;;;;;;1911661;75;21126;-82
2022/06/07 05:57:29;;;;;;;4.97;1.90;;;19.20;99.90;;;;;;1907151;75;21090;-83
2022/06/07 06:00:40;;;;;;;3.58;1.92;;;19.30;99.90;;;;;;1910925;74;21512;-87
2022/06/07 06:03:35;;;;;;;3.45;1.87;;;19.40;99.90;;;;;;1915641;75;21051;-86
2022/06/07 06:06:28;;;;;;;3.60;1.80;;;19.50;99.90;;;;;;1898034;75;21113;-86
2022/06/07 06:12:30;;;;;;;4.67;1.77;;;19.70;99.90;;;;;;1901444;75;21167;-86
2022/06/07 06:15:28;;;;;;;2.70;2.30;;;19.90;99.90;;;;;;1887122;75;21183;-86
2022/06/07 06:18:22;;;;;;;2.95;2.12;;;20.00;99.90;;;;;;1907034;75;21132;-87
2022/06/07 06:21:15;;;;;;;4.22;2.25;;;20.10;99.90;;;;;;1910468;74;21117;-87
2022/06/07 06:24:10;;;;;;;4.08;2.20;;;20.20;99.90;;;;;;1911260;75;21091;-86
2022/06/07 06:27:02;;;;;;;3.83;1.95;;;20.10;99.90;;;;;;1891432;75;21137;-86
2022/06/07 06:32:35;;;;;;;4.70;2.10;;;19.80;99.90;;;;;;1942591;72;22258;-85
2022/06/07 06:35:51;;;;;;;3.22;2.67;;;19.80;99.90;;;;;;1909990;75;21066;-87
2022/06/07 06:39:01;;;;;;;4.37;2.10;;;19.80;99.90;;;;;;1903851;75;21133;-81
2022/06/07 06:44:38;;;;;;;4.67;2.65;;;19.90;99.90;;;;;;1937346;72;22242;-83
2022/06/07 06:47:48;;;;;;;3.67;2.30;;;20.00;99.90;;;;;;1886714;75;21125;-83
2022/06/07 06:51:04;;;;;;;4.67;2.65;;;20.10;99.90;;;;;;1894472;75;21148;-83
2022/06/07 06:53:58;;;;;;;3.10;2.80;;;20.20;99.90;;;;;;1894423;75;21162;-82
2022/06/07 06:57:14;;;;;;;3.50;2.12;;;20.30;99.90;;;;;;1884963;75;21103;-83
2022/06/07 07:00:09;;;;;;;5.28;2.50;;;20.40;99.90;;;;;;1890806;75;21091;-84
2022/06/07 07:05:43;;;;;;;6.17;2.65;;;20.50;99.90;;;;;;1926950;72;22193;-83
2022/06/07 07:08:54;;;;;;;2.87;2.58;;;20.50;99.90;;;;;;1903539;75;21620;-84
2022/06/07 07:12:07;;;;;;;4.87;2.65;;;20.50;99.90;;;;;;1891296;75;21139;-84
2022/06/07 07:15:05;;;;;;;3.27;2.87;;;20.40;99.90;;;;;;1917514;75;21165;-83
2022/06/07 07:18:17;;;;;;;5.53;2.67;;;20.60;99.90;;;;;;1889231;75;21101;-83
2022/06/07 07:21:13;;;;;;;6.10;3.05;;;20.70;99.90;;;;;;1895456;75;21542;-83
2022/06/07 07:24:06;;;;;;;3.80;2.87;;;20.80;99.90;;;;;;1884536;75;21142;-84
2022/06/07 07:29:39;;;;;;;4.37;2.70;;;20.70;99.90;;;;;;1928019;72;22204;-83
2022/06/07 07:32:51;;;;;;;6.30;2.62;;;20.80;99.90;;;;;;1913150;74;21099;-84
2022/06/07 07:36:05;;;;;;;3.37;2.50;;;20.90;99.90;;;;;;1911469;74;21169;-83
2022/06/07 07:38:58;;;;;;;5.17;2.60;;;21.00;99.90;;;;;;1898632;75;21186;-83
2022/06/07 07:44:48;;;;;;;2.80;2.17;;;21.10;99.90;;;;;;1956139;72;22251;-83
2022/06/07 07:47:58;;;;;;;2.40;1.82;;;21.10;99.90;;;;;;1904705;75;21079;-83
2022/06/07 07:51:12;;;;;;;3.65;2.05;;;21.00;99.90;;;;;;1904998;75;21635;-83
2022/06/07 07:54:06;;;;;;;2.65;1.87;;;20.90;99.90;;;;;;1905234;74;21121;-83
2022/06/07 07:59:55;;;;;;;3.20;1.70;;;21.00;99.90;;;;;;1940251;72;22184;-83
2022/06/07 08:05:46;;;;;;;2.70;1.72;;;21.20;99.90;;;;;;1919715;72;22643;-83
2022/06/07 08:08:57;;;;;;;2.12;1.60;;;21.30;99.90;;;;;;1905512;75;21102;-83
2022/06/07 08:12:08;;;;;;;3.17;1.60;;;21.30;99.90;;;;;;1895607;73;21155;-83
2022/06/07 08:15:00;;;;;;;1.65;1.30;;;21.40;99.90;;;;;;1886291;75;21094;-83
2022/06/07 08:18:10;;;;;;;2.00;1.20;;;21.60;99.90;;;;;;1885818;74;21047;-83
2022/06/07 08:21:05;;;;;;;2.45;1.20;;;21.80;99.90;;;;;;1913761;75;21106;-84
2022/06/07 08:23:58;;;;;;;2.85;1.32;;;21.90;99.90;;;;;;1902651;75;21113;-83
2022/06/07 08:29:30;;;;;;;1.52;1.10;;;22.00;99.90;;;;;;1936423;72;22727;-83
2022/06/07 08:32:40;;;;;;;2.72;1.25;;;22.10;99.90;;;;;;1875880;75;21156;-83
2022/06/07 08:39:00;;;;;;;1.52;1.07;;;22.10;99.90;;;;;;1893395;75;21157;-83
2022/06/07 08:42:20;;;;;;;2.25;1.05;;;22.30;99.90;;;;;;1886239;75;21578;-84
2022/06/07 08:47:58;;;;;;;2.10;1.20;;;22.30;99.90;;;;;;1935744;72;22213;-83
2022/06/07 08:51:15;;;;;;;1.30;0.90;;;22.30;99.90;;;;;;1905293;74;21055;-82
2022/06/07 08:54:31;;;;;;;1.15;0.93;;;22.50;99.90;;;;;;1902323;75;21094;-83
2022/06/07 08:57:28;;;;;;;2.05;0.80;;;22.60;99.90;;;;;;1890985;75;21188;-84
2022/06/07 09:00:42;;;;;;;2.02;0.98;;;22.60;99.90;;;;;;1910304;74;21090;-83
2022/06/07 09:03:48;;;;;;;3.40;0.72;;;22.70;99.90;;;;;;1884594;75;21168;-85
2022/06/07 09:06:42;;;;;;;1.63;0.77;;;22.70;99.90;;;;;;1884722;75;21110;-84
2022/06/07 09:13:02;;;;;;;1.98;1.10;;;22.70;99.90;;;;;;1886521;75;21184;-82
2022/06/07 09:15:56;;;;;;;2.33;0.80;;;22.70;99.90;;;;;;1888560;75;21066;-80
2022/06/07 09:18:52;;;;;;;0.80;0.80;;;22.80;99.90;;;;;;1890896;75;21232;-82
2022/06/07 09:24:28;;;;;;;2.20;1.00;;;22.90;99.90;;;;;;1946671;72;22232;-83
2022/06/07 09:27:39;;;;;;;1.77;0.80;;;22.90;99.90;;;;;;1902005;75;21464;-84
2022/06/07 09:33:30;;;;;;;1.25;0.90;;;23.00;99.90;;;;;;1951278;72;22260;-83
2022/06/07 09:36:43;;;;;;;1.62;0.90;;;23.00;99.90;;;;;;1884972;75;21562;-84
2022/06/07 09:39:56;;;;;;;1.45;0.90;;;23.00;99.90;;;;;;1883948;75;21047;-83
2022/06/07 09:42:57;;;;;;;2.20;0.80;;;23.10;99.90;;;;;;1883528;75;21048;-83
2022/06/07 09:46:11;;;;;;;1.95;0.80;;;23.10;99.90;;;;;;1876272;75;21162;-84
2022/06/07 09:51:46;;;;;;;1.10;0.70;;;23.20;99.90;;;;;;1976155;72;22601;-83
2022/06/07 09:55:01;;;;;;;1.55;0.90;;;23.20;99.90;;;;;;1917656;75;21109;-83
2022/06/07 09:58:41;;;;;;;3.27;0.80;;;23.30;99.90;;;;;;1917626;75;21090;-83
2022/06/07 10:01:33;;;;;;;0.85;0.60;;;23.50;99.90;;;;;;1935735;73;21047;-83
2022/06/07 10:04:48;;;;;;;0.80;0.50;;;23.50;99.90;;;;;;1917653;75;21339;-83
2022/06/07 10:07:43;;;;;;;1.05;0.50;;;23.70;99.90;;;;;;1917593;75;21117;-83
2022/06/07 10:10:39;;;;;;;0.55;0.40;;;23.60;99.90;;;;;;1917578;75;21099;-83
2022/06/07 10:16:22;;;;;;;3.65;0.60;;;23.90;99.90;;;;;;1954047;72;22213;-83
2022/06/07 10:19:42;;;;;;;0.50;0.40;;;24.00;99.90;;;;;;1923915;74;21107;-83
2022/06/07 10:22:59;;;;;;;0.70;0.47;;;24.00;99.90;;;;;;1898136;74;21047;-83
2022/06/07 10:26:02;;;;;;;0.88;0.50;;;24.00;99.90;;;;;;1902992;75;21100;-83
2022/06/07 10:29:25;;;;;;;2.15;0.62;;;24.00;99.90;;;;;;1904538;75;21055;-84
2022/06/07 10:32:21;;;;;;;1.40;0.70;;;24.00;99.90;;;;;;1902369;75;21133;-83
2022/06/07 10:35:18;;;;;;;0.80;0.50;;;24.20;99.90;;;;;;1904643;75;21518;-83
2022/06/07 10:38:41;;;;;;;1.00;0.50;;;24.20;99.90;;;;;;1907073;75;21161;-84
2022/06/07 10:41:35;;;;;;;0.95;0.50;;;24.00;99.90;;;;;;1917073;75;21063;-83
2022/06/07 10:44:36;;;;;;;0.98;0.60;;;24.00;99.90;;;;;;1888979;75;21156;-83
2022/06/07 10:47:31;;;;;;;0.50;0.50;;;24.00;99.90;;;;;;1909364;75;21058;-83
2022/06/07 10:50:26;;;;;;;2.58;1.07;;;24.10;99.90;;;;;;1897108;75;21504;-83
2022/06/07 10:53:22;;;;;;;1.75;0.60;;;24.20;99.90;;;;;;1884928;76;21112;-83
2022/06/07 10:56:17;;;;;;;2.15;0.55;;;24.30;99.90;;;;;;1895950;75;21073;-83
2022/06/07 10:59:14;;;;;;;0.55;0.55;;;24.50;99.90;;;;;;1895386;75;21067;-83
2022/06/07 11:02:10;;;;;;;0.72;0.60;;;24.50;99.90;;;;;;1891821;75;21226;-83
2022/06/07 11:11:35;;;;;;;0.70;0.50;;;24.30;98.70;;;;;;1906794;75;21080;-84
2022/06/07 11:14:45;;;;;;;0.80;0.50;;;24.30;94.90;;;;;;1901826;75;21153;-84
2022/06/07 11:17:41;;;;;;;1.02;0.50;;;24.40;97.60;;;;;;1900821;75;21126;-83
2022/06/07 11:20:36;;;;;;;1.07;0.50;;;24.60;96.60;;;;;;1896466;75;21059;-83
2022/06/07 11:23:29;;;;;;;1.67;0.40;;;24.70;96.00;;;;;;1895345;75;21099;-83
2022/06/07 11:26:21;;;;;;;0.72;0.60;;;24.90;94.00;;;;;;1894877;75;21746;-83
2022/06/07 11:29:21;;;;;;;1.15;0.40;;;24.80;93.80;;;;;;1897333;75;21117;-83
2022/06/07 11:35:54;;;;;;;1.15;0.85;;;24.70;95.40;;;;;;1976226;72;22184;-84
2022/06/07 11:39:27;;;;;;;1.40;0.47;;;24.70;96.10;;;;;;1940018;73;21137;-83
2022/06/07 11:42:38;;;;;;;1.10;0.55;;;24.70;93.20;;;;;;1921722;73;21078;-83
2022/06/07 11:45:30;;;;;;;0.40;0.40;;;24.70;93.60;;;;;;1929663;73;21160;-83
2022/06/07 11:48:40;;;;;;;1.95;0.50;;;24.70;94.00;;;;;;1917668;75;21073;-83
2022/06/07 11:54:18;;;;;;;3.80;0.60;;;25.10;93.60;;;;;;1944029;72;22157;-84
2022/06/07 11:57:36;;;;;;;0.95;0.40;;;25.10;93.10;;;;;;1940067;73;21497;-84
2022/06/07 12:00:50;;;;;;;0.50;0.40;;;25.10;91.40;;;;;;1917341;73;21145;-83
2022/06/07 12:03:44;;;;;;;0.40;0.40;;;25.00;89.90;;;;;;1858270;76;21121;-83
2022/06/07 12:07:03;;;;;;;1.42;0.50;;;25.00;90.30;;;;;;1924350;73;21164;-83
2022/06/07 12:09:57;;;;;;;0.50;0.40;;;25.10;90.50;;;;;;1940112;73;21109;-82
2022/06/07 12:12:52;;;;;;;0.80;0.68;;;25.30;90.10;;;;;;1917478;75;21125;-83
2022/06/07 12:15:47;;;;;;;2.40;0.60;;;25.40;89.50;;;;;;1930963;73;21124;-83
2022/06/07 12:18:40;;;;;;;0.65;0.50;;;25.30;88.40;;;;;;1928467;73;21043;-83
2022/06/07 12:21:36;;;;;;;0.50;0.50;;;25.40;90.50;;;;;;1928850;73;21124;-83
2022/06/07 12:24:28;;;;;;;1.85;0.60;;;25.50;90.00;;;;;;1928709;73;21107;-83
2022/06/07 12:27:26;;;;;;;2.75;0.68;;;25.60;89.70;;;;;;1933748;73;21103;-83
2022/06/07 12:30:31;;;;;;;3.20;0.80;;;25.60;88.80;;;;;;1931217;73;21146;-83
2022/06/07 12:33:28;;;;;;;1.55;0.50;;;25.50;88.50;;;;;;1940022;73;21056;-83
2022/06/07 12:36:25;;;;;;;1.37;0.50;;;25.70;87.60;;;;;;1925069;73;21047;-83
2022/06/07 12:39:18;;;;;;;2.87;1.00;;;25.60;87.70;;;;;;1925662;73;21062;-83
2022/06/07 12:42:15;;;;;;;1.30;0.57;;;25.70;85.40;;;;;;1917465;75;21056;-83
2022/06/07 12:45:21;;;;;;;0.53;0.40;;;25.60;86.60;;;;;;1905881;73;21098;-83
2022/06/07 12:48:17;;;;;;;1.07;0.60;;;25.70;86.20;;;;;;1937547;73;21090;-83
2022/06/07 12:54:16;;;;;;;2.58;0.98;;;25.50;85.30;;;;;;1951717;72;22566;-84
2022/06/07 12:57:31;;;;;;;0.57;0.42;;;25.60;87.70;;;;;;1880003;75;21059;-82
2022/06/07 13:00:46;;;;;;;1.75;0.65;;;25.60;86.40;;;;;;1883771;75;21071;-82
2022/06/07 13:03:39;;;;;;;0.88;0.37;;;25.70;86.70;;;;;;1883906;75;21055;-83
2022/06/07 13:07:06;;;;;;;0.62;0.40;;;25.80;85.70;;;;;;1883822;75;21128;-83
2022/06/07 13:10:01;;;;;;;0.93;0.42;;;25.70;87.10;;;;;;1883451;75;21144;-83
2022/06/07 13:12:55;;;;;;;1.65;0.60;;;25.60;88.10;;;;;;1886746;75;21410;-83
2022/06/07 13:15:58;;;;;;;1.82;0.62;;;25.50;88.00;;;;;;1886197;75;21135;-83
2022/06/07 13:19:00;;;;;;;0.90;0.60;;;25.60;87.30;;;;;;1883345;75;21574;-83
2022/06/07 13:22:02;;;;;;;1.45;0.55;;;25.50;87.10;;;;;;1885574;75;21051;-83
2022/06/07 13:24:57;;;;;;;1.35;0.50;;;25.70;88.40;;;;;;1898960;75;21106;-82
2022/06/07 13:27:51;;;;;;;1.05;0.40;;;25.80;86.60;;;;;;1883690;75;21143;-82
2022/06/07 13:30:44;;;;;;;0.50;0.50;;;25.80;82.70;;;;;;1873015;75;21118;-83
2022/06/07 13:33:39;;;;;;;1.12;0.57;;;26.00;83.20;;;;;;1873338;76;21204;-83
2022/06/07 13:36:39;;;;;;;0.50;0.40;;;26.00;83.00;;;;;;1881449;75;21095;-83
2022/06/07 13:39:32;;;;;;;0.50;0.50;;;26.10;81.60;;;;;;1883608;75;21131;-82
2022/06/07 13:42:27;;;;;;;0.65;0.50;;;26.30;82.10;;;;;;1883969;75;21055;-83
2022/06/07 13:45:21;;;;;;;0.90;0.40;;;26.40;82.70;;;;;;1887452;75;21121;-83
2022/06/07 13:48:20;;;;;;;2.22;0.60;;;26.80;80.90;;;;;;1887023;75;21052;-83
2022/06/07 13:54:32;;;;;;;1.45;0.65;;;27.20;78.20;;;;;;1886723;75;21079;-82
2022/06/07 13:57:23;;;;;;;0.85;0.53;;;27.10;79.10;;;;;;1882882;75;21117;-83
2022/06/07 14:00:17;;;;;;;1.57;0.60;;;27.10;79.20;;;;;;1884419;74;21071;-82
2022/06/07 14:03:24;;;;;;;1.05;0.62;;;27.20;80.90;;;;;;1885849;75;21129;-83
2022/06/07 14:06:28;;;;;;;2.27;0.50;;;27.60;80.40;;;;;;1887981;75;21131;-83
2022/06/07 14:09:23;;;;;;;1.30;0.60;;;27.60;80.00;;;;;;1888865;75;21125;-83
2022/06/07 14:12:14;;;;;;;1.12;0.55;;;27.50;78.80;;;;;;1880906;75;21518;-82
2022/06/07 14:15:08;;;;;;;1.22;0.50;;;27.40;78.80;;;;;;1886121;75;21191;-82
2022/06/07 14:17:59;;;;;;;2.45;1.10;;;27.70;79.40;;;;;;1883538;75;21071;-83
2022/06/07 14:20:52;;;;;;;2.37;0.68;;;28.00;76.80;;;;;;1891624;75;21168;-83
2022/06/07 14:23:44;;;;;;;3.87;0.60;;;28.10;76.60;;;;;;1883078;75;21064;-83
2022/06/07 14:26:36;;;;;;;0.62;0.50;;;28.10;77.40;;;;;;1876628;75;21057;-83
2022/06/07 14:29:28;;;;;;;1.55;0.50;;;28.10;77.00;;;;;;1873160;75;21524;-83
2022/06/07 14:32:21;;;;;;;0.50;0.42;;;28.30;74.80;;;;;;1892919;75;21114;-83
2022/06/07 14:35:18;;;;;;;1.40;0.62;;;28.20;74.00;;;;;;1892267;75;21091;-83
2022/06/07 14:38:13;;;;;;;1.27;0.70;;;28.40;75.80;;;;;;1908410;75;21055;-83
2022/06/07 14:41:05;;;;;;;1.62;0.50;;;28.70;73.90;;;;;;1880172;75;21206;-83
2022/06/07 14:44:01;;;;;;;0.68;0.55;;;29.00;71.70;;;;;;1873638;76;21096;-82
2022/06/07 14:46:52;;;;;;;1.07;0.50;;;29.00;71.70;;;;;;1888455;75;21191;-82
2022/06/07 14:49:45;;;;;;;0.78;0.60;;;28.90;71.80;;;;;;1883813;75;21056;-83
2022/06/07 14:52:36;;;;;;;0.62;0.62;;;29.30;73.00;;;;;;1885303;75;21083;-84
2022/06/07 14:55:28;;;;;;;1.85;0.95;;;29.40;71.80;;;;;;1904953;75;21604;-83
2022/06/07 14:58:20;;;;;;;1.85;0.57;;;29.50;71.50;;;;;;1890339;75;21092;-83
2022/06/07 15:01:16;;;;;;;0.82;0.60;;;29.40;72.90;;;;;;1884740;75;21095;-82
2022/06/07 15:04:13;;;;;;;0.53;0.50;;;29.00;73.00;;;;;;1883203;75;21629;-83
2022/06/07 15:07:16;;;;;;;2.15;0.70;;;29.40;72.50;;;;;;1899110;75;21527;-83
2022/06/07 15:10:15;;;;;;;2.05;0.55;;;29.60;70.50;;;;;;1893952;75;21081;-83
2022/06/07 15:13:13;;;;;;;0.82;0.50;;;29.80;69.50;;;;;;1893424;75;21055;-82
2022/06/07 15:16:09;;;;;;;1.15;0.72;;;29.90;68.10;;;;;;1889715;75;21084;-83
2022/06/07 15:19:03;;;;;;;2.47;0.80;;;30.10;68.70;;;;;;1885237;75;21055;-83
2022/06/07 15:21:57;;;;;;;0.68;0.60;;;30.40;68.60;;;;;;1883243;75;21061;-83
2022/06/07 15:24:49;;;;;;;1.57;0.68;;;31.00;66.70;;;;;;1876319;75;21606;-83
2022/06/07 15:27:42;;;;;;;1.75;0.70;;;30.80;65.70;;;;;;1883591;75;21104;-83
2022/06/07 15:30:36;;;;;;;0.70;0.68;;;30.60;64.40;;;;;;1888380;75;21126;-83
2022/06/07 15:33:29;;;;;;;1.75;0.60;;;30.70;65.00;;;;;;1883884;75;21146;-83
2022/06/07 15:36:23;;;;;;;1.75;0.60;;;30.70;63.60;;;;;;1897673;75;21131;-83
2022/06/07 15:39:16;;;;;;;1.37;0.53;;;31.40;63.10;;;;;;1878772;75;21067;-82
2022/06/07 15:45:25;;;;;;;1.77;0.62;;;31.50;62.30;;;;;;1890558;75;21047;-83
2022/06/07 15:48:20;;;;;;;0.75;0.60;;;31.40;62.40;;;;;;1886535;75;21125;-83
2022/06/07 15:51:12;;;;;;;1.05;0.60;;;31.50;62.50;;;;;;1883021;75;21185;-83
2022/06/07 15:54:08;;;;;;;2.05;0.85;;;31.30;61.10;;;;;;1877226;75;21110;-83
2022/06/07 15:57:10;;;;;;;1.95;0.60;;;31.20;60.70;;;;;;1893840;75;21129;-83
2022/06/07 16:00:04;;;;;;;1.92;0.62;;;31.00;60.70;;;;;;1893049;75;21118;-82
2022/06/07 16:03:00;;;;;;;2.05;0.60;;;30.70;59.70;;;;;;1873063;75;21067;-83
2022/06/07 16:05:53;;;;;;;0.80;0.70;;;30.90;59.20;;;;;;1883199;75;21099;-83
2022/06/07 16:08:45;;;;;;;1.40;0.70;;;31.40;59.40;;;;;;1883018;75;21118;-83
2022/06/07 16:11:41;;;;;;;2.87;0.70;;;31.60;59.80;;;;;;1903061;75;21055;-83
2022/06/07 16:14:36;;;;;;;1.00;0.78;;;32.30;59.20;;;;;;1891273;75;21153;-83
2022/06/07 16:17:29;;;;;;;1.12;0.65;;;32.20;59.50;;;;;;1886598;75;21157;-82
2022/06/07 16:20:22;;;;;;;1.70;0.60;;;31.10;60.90;;;;;;1882913;75;21048;-83
2022/06/07 16:23:14;;;;;;;1.67;0.70;;;30.70;61.80;;;;;;1882823;75;21500;-83
2022/06/07 16:26:09;;;;;;;1.30;0.85;;;30.90;61.40;;;;;;1882907;75;21067;-82
2022/06/07 16:35:27;;;;;;;3.80;0.70;;;31.60;59.30;;;;;;1883053;75;21113;-82
2022/06/07 16:38:21;;;;;;;1.00;0.68;;;31.60;59.60;;;;;;1883912;75;21102;-83
2022/06/07 16:41:19;;;;;;;1.42;0.60;;;31.60;59.20;;;;;;1896669;75;21064;-83
2022/06/07 16:44:13;;;;;;;1.17;0.65;;;31.60;59.10;;;;;;1893766;75;21091;-82
2022/06/07 16:47:08;;;;;;;0.72;0.57;;;30.40;59.90;;;;;;1892437;75;21085;-83
2022/06/07 16:50:03;;;;;;;0.75;0.60;;;30.60;60.20;;;;;;1887808;75;21192;-83
2022/06/07 16:52:55;;;;;;;0.85;0.70;;;31.10;59.50;;;;;;1882904;75;21059;-83
2022/06/07 16:55:49;;;;;;;2.40;0.60;;;30.80;59.80;;;;;;1882319;75;21083;-83
2022/06/07 16:58:46;;;;;;;1.02;0.60;;;30.20;60.20;;;;;;1882975;75;21102;-83
2022/06/07 17:01:40;;;;;;;0.50;0.50;;;30.50;58.70;;;;;;1885466;75;21121;-83
2022/06/07 17:04:32;;;;;;;0.85;0.60;;;30.60;58.40;;;;;;1887177;75;21056;-82
2022/06/07 17:07:27;;;;;;;0.50;0.50;;;30.90;58.10;;;;;;1894219;75;21106;-83
2022/06/07 17:10:22;;;;;;;1.45;0.53;;;31.80;57.90;;;;;;1893921;75;21110;-83
2022/06/07 17:13:14;;;;;;;1.85;0.60;;;31.80;57.50;;;;;;1873152;75;21115;-82
2022/06/07 17:16:09;;;;;;;2.72;0.60;;;32.10;57.60;;;;;;1886946;75;21111;-83
2022/06/07 17:19:01;;;;;;;2.42;0.70;;;32.10;57.60;;;;;;1885347;75;21043;-82
2022/06/07 17:21:55;;;;;;;0.50;0.50;;;32.00;58.50;;;;;;1891212;75;21109;-82
2022/06/07 17:24:48;;;;;;;1.22;0.70;;;30.80;59.10;;;;;;1882736;75;21087;-83
2022/06/07 17:27:43;;;;;;;1.27;0.60;;;30.10;59.20;;;;;;1884728;75;21063;-83
2022/06/07 17:30:36;;;;;;;0.68;0.50;;;28.90;60.50;;;;;;1886998;75;21081;-83
2022/06/07 17:33:29;;;;;;;1.70;0.70;;;28.40;61.90;;;;;;1872497;75;21067;-82